sensor_id;sensor_type;location;lat;lon;timestamp;temperature;humidity
23717;DHT22;22094;52.130;5.598;2022-08-19T00:01:10;17.10;99.90
23717;DHT22;22094;52.130;5.598;2022-08-19T00:03:35;17.00;99.90
23717;DHT22;22094;52.130;5.598;2022-08-19T00:06:01;17.00;99.90
23717;DHT22;22094;52.130;5.598;2022-08-19T00:08:26;16.90;99.90
23717;DHT22;22094;52.130;5.598;2022-08-19T00:10:52;16.80;99.90
23717;DHT22;22094;52.130;5.598;2022-08-19T00:13:18;16.80;99.90
23717;DHT22;22094;52.130;5.598;2022-08-19T00:15:43;16.80;99.90
23717;DHT22;22094;52.130;5.598;2022-08-19T00:18:10;16.80;99.90
23717;DHT22;22094;52.130;5.598;2022-08-19T00:20:36;16.80;99.90
23717;DHT22;22094;52.130;5.598;2022-08-19T00:23:02;16.80;99.90
23717;DHT22;22094;52.130;5.598;2022-08-19T00:25:28;16.70;99.90
23717;DHT22;22094;52.130;5.598;2022-08-19T00:27:54;16.70;99.90
23717;DHT22;22094;52.130;5.598;2022-08-19T00:30:19;16.70;99.90
23717;DHT22;22094;52.130;5.598;2022-08-19T00:32:45;16.70;99.90
23717;DHT22;22094;52.130;5.598;2022-08-19T00:35:11;16.70;99.90
23717;DHT22;22094;52.130;5.598;2022-08-19T00:37:37;16.70;99.90
23717;DHT22;22094;52.130;5.598;2022-08-19T00:40:05;16.60;99.90
23717;DHT22;22094;52.130;5.598;2022-08-19T00:42:31;16.60;99.90
23717;DHT22;22094;52.130;5.598;2022-08-19T00:44:56;16.60;99.90
23717;DHT22;22094;52.130;5.598;2022-08-19T00:47:22;16.70;99.90
23717;DHT22;22094;52.130;5.598;2022-08-19T00:49:51;16.70;99.90
23717;DHT22;22094;52.130;5.598;2022-08-19T00:52:23;16.60;99.90
23717;DHT22;22094;52.130;5.598;2022-08-19T00:54:51;16.70;99.90
23717;DHT22;22094;52.130;5.598;2022-08-19T00:57:22;16.60;99.90
23717;DHT22;22094;52.130;5.598;2022-08-19T00:59:51;16.50;99.90
23717;DHT22;22094;52.130;5.598;2022-08-19T01:02:18;16.40;99.90
23717;DHT22;22094;52.130;5.598;2022-08-19T01:04:43;16.40;99.90
23717;DHT22;22094;52.130;5.598;2022-08-19T01:07:09;16.50;99.90
23717;DHT22;22094;52.130;5.598;2022-08-19T01:09:35;16.40;99.90
23717;DHT22;22094;52.130;5.598;2022-08-19T01:12:01;16.50;99.90
23717;DHT22;22094;52.130;5.598;2022-08-19T01:14:27;16.50;99.90
23717;DHT22;22094;52.130;5.598;2022-08-19T01:16:55;16.50;99.90
23717;DHT22;22094;52.130;5.598;2022-08-19T01:19:31;16.50;99.90
23717;DHT22;22094;52.130;5.598;2022-08-19T01:22:03;16.40;99.90
23717;DHT22;22094;52.130;5.598;2022-08-19T01:24:30;16.40;99.90
23717;DHT22;22094;52.130;5.598;2022-08-19T01:26:57;16.30;99.90
23717;DHT22;22094;52.130;5.598;2022-08-19T01:29:23;16.20;99.90
23717;DHT22;22094;52.130;5.598;2022-08-19T01:31:49;16.20;99.90
23717;DHT22;22094;52.130;5.598;2022-08-19T01:34:18;16.20;99.90
23717;DHT22;22094;52.130;5.598;2022-08-19T01:36:46;16.10;99.90
23717;DHT22;22094;52.130;5.598;2022-08-19T01:39:15;16.10;99.90
23717;DHT22;22094;52.130;5.598;2022-08-19T01:41:41;16.10;99.90
23717;DHT22;22094;52.130;5.598;2022-08-19T01:44:08;16.10;99.90
23717;DHT22;22094;52.130;5.598;2022-08-19T01:46:34;16.00;99.90
23717;DHT22;22094;52.130;5.598;2022-08-19T01:49:02;16.10;99.90
23717;DHT22;22094;52.130;5.598;2022-08-19T01:51:27;16.00;99.90
23717;DHT22;22094;52.130;5.598;2022-08-19T01:53:53;16.00;99.90
23717;DHT22;22094;52.130;5.598;2022-08-19T01:56:19;15.90;99.90
23717;DHT22;22094;52.130;5.598;2022-08-19T01:58:51;15.90;99.90
23717;DHT22;22094;52.130;5.598;2022-08-19T02:01:19;15.90;99.90
23717;DHT22;22094;52.130;5.598;2022-08-19T02:03:45;15.90;99.90
23717;DHT22;22094;52.130;5.598;2022-08-19T02:06:11;15.80;99.90
23717;DHT22;22094;52.130;5.598;2022-08-19T02:08:38;15.80;99.90
23717;DHT22;22094;52.130;5.598;2022-08-19T02:11:05;15.90;99.90
23717;DHT22;22094;52.130;5.598;2022-08-19T02:13:31;15.90;99.90
23717;DHT22;22094;52.130;5.598;2022-08-19T02:15:56;15.80;99.90
23717;DHT22;22094;52.130;5.598;2022-08-19T02:18:23;15.80;99.90
23717;DHT22;22094;52.130;5.598;2022-08-19T02:20:49;15.70;99.90
23717;DHT22;22094;52.130;5.598;2022-08-19T02:23:16;15.60;99.90
23717;DHT22;22094;52.130;5.598;2022-08-19T02:25:47;15.60;99.90
23717;DHT22;22094;52.130;5.598;2022-08-19T02:28:13;15.60;99.90
23717;DHT22;22094;52.130;5.598;2022-08-19T02:30:40;15.60;99.90
23717;DHT22;22094;52.130;5.598;2022-08-19T02:33:06;15.80;99.90
23717;DHT22;22094;52.130;5.598;2022-08-19T02:35:31;15.80;99.90
23717;DHT22;22094;52.130;5.598;2022-08-19T02:37:57;15.70;99.90
23717;DHT22;22094;52.130;5.598;2022-08-19T02:40:49;15.60;99.90
23717;DHT22;22094;52.130;5.598;2022-08-19T02:43:16;15.70;99.90
23717;DHT22;22094;52.130;5.598;2022-08-19T02:45:42;15.60;99.90
23717;DHT22;22094;52.130;5.598;2022-08-19T02:48:08;15.60;99.90
23717;DHT22;22094;52.130;5.598;2022-08-19T02:50:38;15.60;99.90
23717;DHT22;22094;52.130;5.598;2022-08-19T02:53:04;15.60;99.90
23717;DHT22;22094;52.130;5.598;2022-08-19T02:55:29;15.50;99.90
23717;DHT22;22094;52.130;5.598;2022-08-19T02:57:55;15.50;99.90
23717;DHT22;22094;52.130;5.598;2022-08-19T03:00:22;15.40;99.90
23717;DHT22;22094;52.130;5.598;2022-08-19T03:02:49;15.40;99.90
23717;DHT22;22094;52.130;5.598;2022-08-19T03:05:15;15.30;99.90
23717;DHT22;22094;52.130;5.598;2022-08-19T03:07:40;15.30;99.90
23717;DHT22;22094;52.130;5.598;2022-08-19T03:10:07;15.30;99.90
23717;DHT22;22094;52.130;5.598;2022-08-19T03:12:36;15.30;99.90
23717;DHT22;22094;52.130;5.598;2022-08-19T03:15:06;15.40;99.90
23717;DHT22;22094;52.130;5.598;2022-08-19T03:17:34;15.30;99.90
23717;DHT22;22094;52.130;5.598;2022-08-19T03:19:59;15.30;99.90
23717;DHT22;22094;52.130;5.598;2022-08-19T03:22:25;15.30;99.90
23717;DHT22;22094;52.130;5.598;2022-08-19T03:24:51;15.30;99.90
23717;DHT22;22094;52.130;5.598;2022-08-19T03:27:17;15.30;99.90
23717;DHT22;22094;52.130;5.598;2022-08-19T03:29:43;15.30;99.90
23717;DHT22;22094;52.130;5.598;2022-08-19T03:32:08;15.30;99.90
23717;DHT22;22094;52.130;5.598;2022-08-19T03:34:37;15.30;99.90
23717;DHT22;22094;52.130;5.598;2022-08-19T03:37:07;15.30;99.90
23717;DHT22;22094;52.130;5.598;2022-08-19T03:39:35;15.40;99.90
23717;DHT22;22094;52.130;5.598;2022-08-19T03:42:01;15.40;99.90
23717;DHT22;22094;52.130;5.598;2022-08-19T03:44:29;15.40;99.90
23717;DHT22;22094;52.130;5.598;2022-08-19T03:46:56;15.40;99.90
23717;DHT22;22094;52.130;5.598;2022-08-19T03:49:26;15.30;99.90
23717;DHT22;22094;52.130;5.598;2022-08-19T03:51:57;15.30;99.90
23717;DHT22;22094;52.130;5.598;2022-08-19T03:54:24;15.40;99.90
23717;DHT22;22094;52.130;5.598;2022-08-19T03:56:51;15.40;99.90
23717;DHT22;22094;52.130;5.598;2022-08-19T03:59:20;15.30;99.90
23717;DHT22;22094;52.130;5.598;2022-08-19T04:01:47;15.20;99.90
23717;DHT22;22094;52.130;5.598;2022-08-19T04:04:12;15.10;99.90
23717;DHT22;22094;52.130;5.598;2022-08-19T04:06:39;15.00;99.90
23717;DHT22;22094;52.130;5.598;2022-08-19T04:09:07;15.00;99.90
23717;DHT22;22094;52.130;5.598;2022-08-19T04:11:36;14.90;99.90
23717;DHT22;22094;52.130;5.598;2022-08-19T04:14:05;15.00;99.90
23717;DHT22;22094;52.130;5.598;2022-08-19T04:16:30;15.00;99.90
23717;DHT22;22094;52.130;5.598;2022-08-19T04:18:59;15.00;99.90
23717;DHT22;22094;52.130;5.598;2022-08-19T04:21:27;14.90;99.90
23717;DHT22;22094;52.130;5.598;2022-08-19T04:23:53;14.90;99.90
23717;DHT22;22094;52.130;5.598;2022-08-19T04:26:25;14.90;99.90
23717;DHT22;22094;52.130;5.598;2022-08-19T04:28:51;14.90;99.90
23717;DHT22;22094;52.130;5.598;2022-08-19T04:31:23;15.10;99.90
23717;DHT22;22094;52.130;5.598;2022-08-19T04:33:58;14.90;99.90
23717;DHT22;22094;52.130;5.598;2022-08-19T04:36:27;14.90;99.90
23717;DHT22;22094;52.130;5.598;2022-08-19T04:38:55;14.90;99.90
23717;DHT22;22094;52.130;5.598;2022-08-19T04:41:47;14.80;99.90
23717;DHT22;22094;52.130;5.598;2022-08-19T04:44:33;14.70;99.90
23717;DHT22;22094;52.130;5.598;2022-08-19T04:46:59;14.70;99.90
23717;DHT22;22094;52.130;5.598;2022-08-19T04:49:25;14.70;99.90
23717;DHT22;22094;52.130;5.598;2022-08-19T04:51:53;14.60;99.90
23717;DHT22;22094;52.130;5.598;2022-08-19T04:54:20;14.80;99.90
23717;DHT22;22094;52.130;5.598;2022-08-19T04:56:48;14.80;99.90
23717;DHT22;22094;52.130;5.598;2022-08-19T04:59:15;14.90;99.90
23717;DHT22;22094;52.130;5.598;2022-08-19T05:01:42;14.90;99.90
23717;DHT22;22094;52.130;5.598;2022-08-19T05:04:08;14.80;99.90
23717;DHT22;22094;52.130;5.598;2022-08-19T05:06:35;14.80;99.90
23717;DHT22;22094;52.130;5.598;2022-08-19T05:09:04;14.80;99.90
23717;DHT22;22094;52.130;5.598;2022-08-19T05:11:36;14.90;99.90
23717;DHT22;22094;52.130;5.598;2022-08-19T05:14:04;14.90;99.90
23717;DHT22;22094;52.130;5.598;2022-08-19T05:16:30;14.90;99.90
23717;DHT22;22094;52.130;5.598;2022-08-19T05:18:55;14.90;99.90
23717;DHT22;22094;52.130;5.598;2022-08-19T05:21:40;15.00;99.90
23717;DHT22;22094;52.130;5.598;2022-08-19T05:24:25;15.10;99.90
23717;DHT22;22094;52.130;5.598;2022-08-19T05:26:52;15.20;99.90
23717;DHT22;22094;52.130;5.598;2022-08-19T05:29:20;13.70;99.90
23717;DHT22;22094;52.130;5.598;2022-08-19T05:31:47;15.50;99.90
23717;DHT22;22094;52.130;5.598;2022-08-19T05:34:15;16.10;99.90
23717;DHT22;22094;52.130;5.598;2022-08-19T05:36:42;16.00;99.90
23717;DHT22;22094;52.130;5.598;2022-08-19T05:39:11;16.00;99.90
23717;DHT22;22094;52.130;5.598;2022-08-19T05:41:48;16.30;99.90
23717;DHT22;22094;52.130;5.598;2022-08-19T05:44:15;16.50;99.90
23717;DHT22;22094;52.130;5.598;2022-08-19T05:46:43;16.70;99.90
23717;DHT22;22094;52.130;5.598;2022-08-19T05:49:12;14.90;99.90
23717;DHT22;22094;52.130;5.598;2022-08-19T05:51:39;15.30;99.90
23717;DHT22;22094;52.130;5.598;2022-08-19T05:54:06;16.50;99.90
23717;DHT22;22094;52.130;5.598;2022-08-19T05:56:33;17.30;99.90
23717;DHT22;22094;52.130;5.598;2022-08-19T05:59:02;17.30;99.90
23717;DHT22;22094;52.130;5.598;2022-08-19T06:01:27;18.90;99.90
23717;DHT22;22094;52.130;5.598;2022-08-19T06:03:53;19.10;99.90
23717;DHT22;22094;52.130;5.598;2022-08-19T06:06:19;17.60;99.90
23717;DHT22;22094;52.130;5.598;2022-08-19T06:08:46;17.90;99.90
23717;DHT22;22094;52.130;5.598;2022-08-19T06:11:28;17.90;99.90
23717;DHT22;22094;52.130;5.598;2022-08-19T06:14:02;18.30;99.90
23717;DHT22;22094;52.130;5.598;2022-08-19T06:16:28;18.20;99.90
23717;DHT22;22094;52.130;5.598;2022-08-19T06:18:59;18.80;99.90
23717;DHT22;22094;52.130;5.598;2022-08-19T06:21:27;18.60;99.90
23717;DHT22;22094;52.130;5.598;2022-08-19T06:23:53;19.60;99.90
23717;DHT22;22094;52.130;5.598;2022-08-19T06:26:20;18.50;99.90
23717;DHT22;22094;52.130;5.598;2022-08-19T06:28:47;18.90;99.90
23717;DHT22;22094;52.130;5.598;2022-08-19T06:31:18;18.60;99.90
23717;DHT22;22094;52.130;5.598;2022-08-19T06:36:30;19.10;99.90
23717;DHT22;22094;52.130;5.598;2022-08-19T06:39:03;18.90;99.90
23717;DHT22;22094;52.130;5.598;2022-08-19T06:41:30;19.00;99.90
23717;DHT22;22094;52.130;5.598;2022-08-19T06:43:58;18.00;99.90
23717;DHT22;22094;52.130;5.598;2022-08-19T06:46:23;19.70;99.90
23717;DHT22;22094;52.130;5.598;2022-08-19T06:51:18;19.00;99.90
23717;DHT22;22094;52.130;5.598;2022-08-19T06:53:46;20.10;99.90
23717;DHT22;22094;52.130;5.598;2022-08-19T06:56:13;19.30;99.90
23717;DHT22;22094;52.130;5.598;2022-08-19T07:01:06;19.40;99.90
23717;DHT22;22094;52.130;5.598;2022-08-19T07:03:33;20.00;99.90
23717;DHT22;22094;52.130;5.598;2022-08-19T07:06:06;20.10;99.90
23717;DHT22;22094;52.130;5.598;2022-08-19T07:08:33;20.10;99.90
23717;DHT22;22094;52.130;5.598;2022-08-19T07:10:59;20.30;99.90
23717;DHT22;22094;52.130;5.598;2022-08-19T07:13:25;20.40;99.90
23717;DHT22;22094;52.130;5.598;2022-08-19T07:18:18;20.80;99.90
23717;DHT22;22094;52.130;5.598;2022-08-19T07:23:11;20.10;99.90
23717;DHT22;22094;52.130;5.598;2022-08-19T07:25:37;20.20;99.90
23717;DHT22;22094;52.130;5.598;2022-08-19T07:30:30;21.30;99.90
23717;DHT22;22094;52.130;5.598;2022-08-19T07:32:55;20.80;99.90
23717;DHT22;22094;52.130;5.598;2022-08-19T07:37:49;19.00;99.90
23717;DHT22;22094;52.130;5.598;2022-08-19T07:45:07;20.30;99.90
23717;DHT22;22094;52.130;5.598;2022-08-19T07:49:59;20.60;99.90
23717;DHT22;22094;52.130;5.598;2022-08-19T07:59:44;22.20;99.90
23717;DHT22;22094;52.130;5.598;2022-08-19T08:10:06;22.10;99.90
23717;DHT22;22094;52.130;5.598;2022-08-19T08:12:36;22.20;99.90
23717;DHT22;22094;52.130;5.598;2022-08-19T08:15:12;22.60;99.90
23717;DHT22;22094;52.130;5.598;2022-08-19T08:17:42;22.80;99.90
23717;DHT22;22094;52.130;5.598;2022-08-19T08:25:21;22.60;99.90
23717;DHT22;22094;52.130;5.598;2022-08-19T08:27:48;22.60;99.90
23717;DHT22;22094;52.130;5.598;2022-08-19T08:35:14;21.80;99.90
23717;DHT22;22094;52.130;5.598;2022-08-19T08:40:13;23.90;99.90
23717;DHT22;22094;52.130;5.598;2022-08-19T08:42:51;24.50;99.90
23717;DHT22;22094;52.130;5.598;2022-08-19T08:45:19;23.50;99.90
23717;DHT22;22094;52.130;5.598;2022-08-19T08:47:49;20.30;99.90
23717;DHT22;22094;52.130;5.598;2022-08-19T08:50:23;24.10;99.90
23717;DHT22;22094;52.130;5.598;2022-08-19T08:52:54;23.50;99.90
23717;DHT22;22094;52.130;5.598;2022-08-19T08:55:24;23.20;99.90
23717;DHT22;22094;52.130;5.598;2022-08-19T09:00:30;23.80;99.90
23717;DHT22;22094;52.130;5.598;2022-08-19T09:02:57;23.60;99.90
23717;DHT22;22094;52.130;5.598;2022-08-19T09:05:30;23.60;99.90
23717;DHT22;22094;52.130;5.598;2022-08-19T09:10:32;23.80;99.90
23717;DHT22;22094;52.130;5.598;2022-08-19T09:16:26;24.10;99.90
23717;DHT22;22094;52.130;5.598;2022-08-19T09:18:49;23.20;99.90
23717;DHT22;22094;52.130;5.598;2022-08-19T09:26:11;22.40;99.90
23717;DHT22;22094;52.130;5.598;2022-08-19T09:36:08;23.90;99.90
23717;DHT22;22094;52.130;5.598;2022-08-19T09:41:05;23.80;99.90
23717;DHT22;22094;52.130;5.598;2022-08-19T09:43:32;24.80;99.90
23717;DHT22;22094;52.130;5.598;2022-08-19T09:46:05;25.30;99.90
23717;DHT22;22094;52.130;5.598;2022-08-19T09:48:39;24.10;99.90
23717;DHT22;22094;52.130;5.598;2022-08-19T09:51:07;23.90;99.90
23717;DHT22;22094;52.130;5.598;2022-08-19T09:53:34;25.30;99.90
23717;DHT22;22094;52.130;5.598;2022-08-19T10:00:55;24.90;99.90
23717;DHT22;22094;52.130;5.598;2022-08-19T10:08:18;25.70;99.90
23717;DHT22;22094;52.130;5.598;2022-08-19T10:18:05;25.30;99.90
23717;DHT22;22094;52.130;5.598;2022-08-19T11:27:09;26.50;99.90
23717;DHT22;22094;52.130;5.598;2022-08-19T11:29:38;26.80;99.90
23717;DHT22;22094;52.130;5.598;2022-08-19T11:32:07;27.00;99.90
23717;DHT22;22094;52.130;5.598;2022-08-19T11:37:01;26.30;99.90
23717;DHT22;22094;52.130;5.598;2022-08-19T11:39:29;27.40;99.90
23717;DHT22;22094;52.130;5.598;2022-08-19T11:56:37;28.50;99.90
23717;DHT22;22094;52.130;5.598;2022-08-19T12:03:56;30.20;99.90
23717;DHT22;22094;52.130;5.598;2022-08-19T12:06:25;27.20;99.90
23717;DHT22;22094;52.130;5.598;2022-08-19T12:08:55;28.50;99.90
23717;DHT22;22094;52.130;5.598;2022-08-19T12:16:24;30.30;99.90
23717;DHT22;22094;52.130;5.598;2022-08-19T12:18:51;30.40;99.90
23717;DHT22;22094;52.130;5.598;2022-08-19T12:23:47;30.60;99.90
23717;DHT22;22094;52.130;5.598;2022-08-19T12:31:07;29.60;99.90
23717;DHT22;22094;52.130;5.598;2022-08-19T12:36:09;29.60;99.90
23717;DHT22;22094;52.130;5.598;2022-08-19T12:53:15;29.30;99.90
23717;DHT22;22094;52.130;5.598;2022-08-19T12:55:42;28.10;99.90
23717;DHT22;22094;52.130;5.598;2022-08-19T13:00:38;27.30;99.90
23717;DHT22;22094;52.130;5.598;2022-08-19T13:03:03;26.60;99.90
23717;DHT22;22094;52.130;5.598;2022-08-19T13:05:31;25.60;99.90
23717;DHT22;22094;52.130;5.598;2022-08-19T13:07:59;24.60;99.90
23717;DHT22;22094;52.130;5.598;2022-08-19T13:10:31;24.20;99.90
23717;DHT22;22094;52.130;5.598;2022-08-19T13:13:03;23.70;99.90
23717;DHT22;22094;52.130;5.598;2022-08-19T13:15:33;23.60;99.90
23717;DHT22;22094;52.130;5.598;2022-08-19T13:17:59;23.60;99.90
23717;DHT22;22094;52.130;5.598;2022-08-19T13:25:17;23.20;99.90
23717;DHT22;22094;52.130;5.598;2022-08-19T13:27:45;23.30;99.90
23717;DHT22;22094;52.130;5.598;2022-08-19T13:30:13;22.70;99.90
23717;DHT22;22094;52.130;5.598;2022-08-19T13:32:58;23.00;99.90
23717;DHT22;22094;52.130;5.598;2022-08-19T13:35:51;22.90;99.90
23717;DHT22;22094;52.130;5.598;2022-08-19T13:38:21;23.10;99.90
23717;DHT22;22094;52.130;5.598;2022-08-19T13:40:48;22.80;99.90
23717;DHT22;22094;52.130;5.598;2022-08-19T13:43:15;22.80;99.90
23717;DHT22;22094;52.130;5.598;2022-08-19T13:45:41;21.90;99.90
23717;DHT22;22094;52.130;5.598;2022-08-19T13:48:07;20.80;99.90
23717;DHT22;22094;52.130;5.598;2022-08-19T13:50:37;20.60;99.90
23717;DHT22;22094;52.130;5.598;2022-08-19T13:53:03;20.70;99.90
23717;DHT22;22094;52.130;5.598;2022-08-19T13:55:29;20.40;99.90
23717;DHT22;22094;52.130;5.598;2022-08-19T13:57:57;20.50;99.90
23717;DHT22;22094;52.130;5.598;2022-08-19T14:00:25;20.40;99.90
23717;DHT22;22094;52.130;5.598;2022-08-19T14:02:53;20.30;99.90
23717;DHT22;22094;52.130;5.598;2022-08-19T14:05:19;20.10;99.90
23717;DHT22;22094;52.130;5.598;2022-08-19T14:07:46;20.10;99.90
23717;DHT22;22094;52.130;5.598;2022-08-19T14:10:14;20.20;99.90
23717;DHT22;22094;52.130;5.598;2022-08-19T14:12:40;20.30;99.90
23717;DHT22;22094;52.130;5.598;2022-08-19T14:15:08;20.40;99.90
23717;DHT22;22094;52.130;5.598;2022-08-19T14:17:34;20.50;99.90
23717;DHT22;22094;52.130;5.598;2022-08-19T14:20:04;20.50;99.90
23717;DHT22;22094;52.130;5.598;2022-08-19T14:22:34;20.50;99.90
23717;DHT22;22094;52.130;5.598;2022-08-19T14:25:00;20.40;99.90
23717;DHT22;22094;52.130;5.598;2022-08-19T14:29:52;20.50;99.90
23717;DHT22;22094;52.130;5.598;2022-08-19T14:32:18;20.40;99.90
23717;DHT22;22094;52.130;5.598;2022-08-19T14:42:08;20.70;99.90
23717;DHT22;22094;52.130;5.598;2022-08-19T14:44:35;20.90;99.90
23717;DHT22;22094;52.130;5.598;2022-08-19T14:56:44;21.90;99.90
23717;DHT22;22094;52.130;5.598;2022-08-19T15:08:58;21.50;99.90
23717;DHT22;22094;52.130;5.598;2022-08-19T15:11:27;21.50;99.90
23717;DHT22;22094;52.130;5.598;2022-08-19T15:13:54;21.60;99.90
23717;DHT22;22094;52.130;5.598;2022-08-19T15:18:53;21.30;99.90
23717;DHT22;22094;52.130;5.598;2022-08-19T15:26:12;21.70;99.90
23717;DHT22;22094;52.130;5.598;2022-08-19T15:31:04;21.90;99.90
23717;DHT22;22094;52.130;5.598;2022-08-19T15:33:34;22.10;99.90
23717;DHT22;22094;52.130;5.598;2022-08-19T15:36:06;22.10;99.90
23717;DHT22;22094;52.130;5.598;2022-08-19T15:38:32;22.30;99.90
23717;DHT22;22094;52.130;5.598;2022-08-19T15:43:45;22.50;99.90
23717;DHT22;22094;52.130;5.598;2022-08-19T15:48:37;22.60;99.90
23717;DHT22;22094;52.130;5.598;2022-08-19T16:01:07;24.10;99.90
23717;DHT22;22094;52.130;5.598;2022-08-19T16:03:53;24.10;99.90
23717;DHT22;22094;52.130;5.598;2022-08-19T16:06:39;23.30;99.90
23717;DHT22;22094;52.130;5.598;2022-08-19T16:11:33;23.10;99.90
23717;DHT22;22094;52.130;5.598;2022-08-19T16:14:00;22.70;99.90
23717;DHT22;22094;52.130;5.598;2022-08-19T16:16:31;22.70;99.90
23717;DHT22;22094;52.130;5.598;2022-08-19T16:18:58;22.50;99.90
23717;DHT22;22094;52.130;5.598;2022-08-19T16:21:26;22.10;99.90
23717;DHT22;22094;52.130;5.598;2022-08-19T16:26:24;23.10;99.90
23717;DHT22;22094;52.130;5.598;2022-08-19T16:31:16;24.30;99.90
23717;DHT22;22094;52.130;5.598;2022-08-19T16:33:42;23.10;99.90
23717;DHT22;22094;52.130;5.598;2022-08-19T16:36:10;23.20;99.90
23717;DHT22;22094;52.130;5.598;2022-08-19T16:43:29;22.60;99.90
23717;DHT22;22094;52.130;5.598;2022-08-19T16:48:25;22.60;99.90
23717;DHT22;22094;52.130;5.598;2022-08-19T16:50:52;22.60;99.90
23717;DHT22;22094;52.130;5.598;2022-08-19T16:53:20;22.70;99.90
23717;DHT22;22094;52.130;5.598;2022-08-19T16:55:47;22.40;99.90
23717;DHT22;22094;52.130;5.598;2022-08-19T16:58:15;22.60;99.90
23717;DHT22;22094;52.130;5.598;2022-08-19T17:03:09;23.40;99.90
23717;DHT22;22094;52.130;5.598;2022-08-19T17:05:45;22.70;99.90
23717;DHT22;22094;52.130;5.598;2022-08-19T17:08:11;21.80;99.90
23717;DHT22;22094;52.130;5.598;2022-08-19T17:13:06;22.80;99.90
23717;DHT22;22094;52.130;5.598;2022-08-19T17:18:02;22.70;99.90
23717;DHT22;22094;52.130;5.598;2022-08-19T17:20:29;22.50;99.90
23717;DHT22;22094;52.130;5.598;2022-08-19T17:25:23;22.40;99.90
23717;DHT22;22094;52.130;5.598;2022-08-19T17:30:16;22.20;99.90
23717;DHT22;22094;52.130;5.598;2022-08-19T17:32:42;22.10;99.90
23717;DHT22;22094;52.130;5.598;2022-08-19T17:35:08;22.00;99.90
23717;DHT22;22094;52.130;5.598;2022-08-19T17:37:35;21.70;99.90
23717;DHT22;22094;52.130;5.598;2022-08-19T17:40:03;21.60;99.90
23717;DHT22;22094;52.130;5.598;2022-08-19T17:44:55;21.50;99.90
23717;DHT22;22094;52.130;5.598;2022-08-19T17:47:24;21.50;99.90
23717;DHT22;22094;52.130;5.598;2022-08-19T17:49:50;21.50;99.90
23717;DHT22;22094;52.130;5.598;2022-08-19T17:52:17;21.40;99.90
23717;DHT22;22094;52.130;5.598;2022-08-19T17:54:43;21.30;99.90
23717;DHT22;22094;52.130;5.598;2022-08-19T17:59:35;21.20;99.90
23717;DHT22;22094;52.130;5.598;2022-08-19T18:02:06;21.10;99.90
23717;DHT22;22094;52.130;5.598;2022-08-19T18:04:33;21.10;99.90
23717;DHT22;22094;52.130;5.598;2022-08-19T18:06:58;22.00;99.90
23717;DHT22;22094;52.130;5.598;2022-08-19T18:09:30;21.20;99.90
23717;DHT22;22094;52.130;5.598;2022-08-19T18:11:57;21.10;99.90
23717;DHT22;22094;52.130;5.598;2022-08-19T18:14:24;21.10;99.90
23717;DHT22;22094;52.130;5.598;2022-08-19T18:16:56;21.10;99.90
23717;DHT22;22094;52.130;5.598;2022-08-19T18:19:23;21.00;99.90
23717;DHT22;22094;52.130;5.598;2022-08-19T18:21:49;21.00;99.90
23717;DHT22;22094;52.130;5.598;2022-08-19T18:24:14;20.90;99.90
23717;DHT22;22094;52.130;5.598;2022-08-19T18:26:40;21.00;99.90
23717;DHT22;22094;52.130;5.598;2022-08-19T18:29:06;20.90;99.90
23717;DHT22;22094;52.130;5.598;2022-08-19T18:31:34;20.90;99.90
23717;DHT22;22094;52.130;5.598;2022-08-19T18:34:00;20.90;99.90
23717;DHT22;22094;52.130;5.598;2022-08-19T18:36:26;20.90;99.90
23717;DHT22;22094;52.130;5.598;2022-08-19T18:38:53;20.90;99.90
23717;DHT22;22094;52.130;5.598;2022-08-19T18:41:37;20.90;99.90
23717;DHT22;22094;52.130;5.598;2022-08-19T18:44:22;20.90;99.90
23717;DHT22;22094;52.130;5.598;2022-08-19T18:47:06;20.90;99.90
23717;DHT22;22094;52.130;5.598;2022-08-19T18:49:50;20.80;99.90
23717;DHT22;22094;52.130;5.598;2022-08-19T18:52:19;20.80;99.90
23717;DHT22;22094;52.130;5.598;2022-08-19T18:54:51;20.80;99.90
23717;DHT22;22094;52.130;5.598;2022-08-19T18:57:17;20.70;99.90
23717;DHT22;22094;52.130;5.598;2022-08-19T18:59:43;20.70;99.90
23717;DHT22;22094;52.130;5.598;2022-08-19T19:02:10;20.70;99.90
23717;DHT22;22094;52.130;5.598;2022-08-19T19:04:39;20.60;99.90
23717;DHT22;22094;52.130;5.598;2022-08-19T19:07:05;20.60;99.90
23717;DHT22;22094;52.130;5.598;2022-08-19T19:09:31;20.60;99.90
23717;DHT22;22094;52.130;5.598;2022-08-19T19:11:59;20.60;99.90
23717;DHT22;22094;52.130;5.598;2022-08-19T19:14:31;20.60;99.90
23717;DHT22;22094;52.130;5.598;2022-08-19T19:17:00;20.60;99.90
23717;DHT22;22094;52.130;5.598;2022-08-19T19:19:27;20.50;99.90
23717;DHT22;22094;52.130;5.598;2022-08-19T19:21:53;20.50;99.90
23717;DHT22;22094;52.130;5.598;2022-08-19T19:24:25;20.50;99.90
23717;DHT22;22094;52.130;5.598;2022-08-19T19:26:53;20.40;99.90
23717;DHT22;22094;52.130;5.598;2022-08-19T19:29:19;20.30;99.90
23717;DHT22;22094;52.130;5.598;2022-08-19T19:31:46;20.30;99.90
23717;DHT22;22094;52.130;5.598;2022-08-19T19:34:14;20.30;99.90
23717;DHT22;22094;52.130;5.598;2022-08-19T19:36:39;20.20;99.90
23717;DHT22;22094;52.130;5.598;2022-08-19T19:39:06;20.20;99.90
23717;DHT22;22094;52.130;5.598;2022-08-19T19:41:32;20.20;99.90
23717;DHT22;22094;52.130;5.598;2022-08-19T19:44:00;20.10;99.90
23717;DHT22;22094;52.130;5.598;2022-08-19T19:46:27;20.10;99.90
23717;DHT22;22094;52.130;5.598;2022-08-19T19:48:53;20.10;99.90
23717;DHT22;22094;52.130;5.598;2022-08-19T19:51:20;20.00;99.90
23717;DHT22;22094;52.130;5.598;2022-08-19T19:53:45;20.00;99.90
23717;DHT22;22094;52.130;5.598;2022-08-19T19:56:11;20.00;99.90
23717;DHT22;22094;52.130;5.598;2022-08-19T19:58:37;20.00;99.90
23717;DHT22;22094;52.130;5.598;2022-08-19T20:01:06;19.90;99.90
23717;DHT22;22094;52.130;5.598;2022-08-19T20:03:39;19.90;99.90
23717;DHT22;22094;52.130;5.598;2022-08-19T20:06:06;19.90;99.90
23717;DHT22;22094;52.130;5.598;2022-08-19T20:08:32;19.80;99.90
23717;DHT22;22094;52.130;5.598;2022-08-19T20:13:58;19.70;99.90
23717;DHT22;22094;52.130;5.598;2022-08-19T20:16:26;19.60;99.90
23717;DHT22;22094;52.130;5.598;2022-08-19T20:18:53;19.50;99.90
23717;DHT22;22094;52.130;5.598;2022-08-19T20:21:19;19.50;99.90
23717;DHT22;22094;52.130;5.598;2022-08-19T20:23:44;19.50;99.90
23717;DHT22;22094;52.130;5.598;2022-08-19T20:26:10;19.40;99.90
23717;DHT22;22094;52.130;5.598;2022-08-19T20:28:35;19.30;99.90
23717;DHT22;22094;52.130;5.598;2022-08-19T20:31:01;19.30;99.90
23717;DHT22;22094;52.130;5.598;2022-08-19T20:33:27;19.20;99.90
23717;DHT22;22094;52.130;5.598;2022-08-19T20:35:52;19.20;99.90
23717;DHT22;22094;52.130;5.598;2022-08-19T20:38:18;19.20;99.90
23717;DHT22;22094;52.130;5.598;2022-08-19T20:40:43;19.10;99.90
23717;DHT22;22094;52.130;5.598;2022-08-19T20:43:16;19.20;99.90